Time;durP1;ratioP1;P1;durP2;ratioP2;P2;SDS_P1;SDS_P2;PMS_P1;PMS_P2;Temp;Humidity;BMP_temperature;BMP_pressure;BME280_temperature;BME280_humidity;BME280_pressure;Samples;Min_cycle;Max_cycle;Signal;HPM_P1;HPM_P2
2023/04/17 00:02:05;;;;;;;47.22;3.03;;;;;;;22.58;57.55;99809.88;7323324;19;130299;-38
2023/04/17 00:04:31;;;;;;;41.78;3.00;;;;;;;22.69;57.54;99828.91;7324249;19;129187;-39
2023/04/17 00:06:58;;;;;;;6.57;1.13;;;;;;;22.69;57.09;99822.84;7323068;19;130985;-38
2023/04/17 00:09:23;;;;;;;50.38;3.38;;;;;;;22.61;56.96;99822.72;7319189;19;130469;-36
2023/04/17 00:11:49;;;;;;;39.05;2.53;;;;;;;22.51;57.16;99814.03;7324930;19;129886;-39
2023/04/17 00:14:14;;;;;;;38.53;2.60;;;;;;;22.65;57.18;99826.72;7321519;19;129607;-37
2023/04/17 00:16:40;;;;;;;32.58;2.33;;;;;;;22.68;57.62;99829.88;7322067;19;130936;-38
2023/04/17 00:19:05;;;;;;;46.50;2.90;;;;;;;22.65;57.85;99824.09;7320200;19;130368;-38
2023/04/17 00:21:31;;;;;;;43.97;2.83;;;;;;;22.71;57.31;99824.34;7323563;19;128842;-38
2023/04/17 00:23:56;;;;;;;24.63;2.05;;;;;;;22.73;57.07;99824.19;7321603;19;129082;-39
2023/04/17 00:26:21;;;;;;;30.08;2.10;;;;;;;22.72;57.14;99822.56;7314226;19;129072;-38
2023/04/17 00:28:49;;;;;;;38.47;2.90;;;;;;;22.72;57.22;99830.44;7312650;19;129549;-39
2023/04/17 00:31:15;;;;;;;30.13;2.15;;;;;;;22.74;57.83;99831.94;7311197;19;130255;-38
2023/04/17 00:33:40;;;;;;;33.35;2.25;;;;;;;22.75;56.98;99822.28;7315464;19;130841;-39
2023/04/17 00:36:06;;;;;;;32.15;2.22;;;;;;;22.75;57.64;99832.75;7315022;19;130850;-39
2023/04/17 00:38:31;;;;;;;62.27;3.60;;;;;;;22.75;57.76;99824.91;7312671;19;130385;-37
2023/04/17 00:40:57;;;;;;;36.77;2.53;;;;;;;22.75;57.78;99823.09;7316004;19;129144;-38
2023/04/17 00:43:22;;;;;;;54.65;3.47;;;;;;;22.74;57.35;99828.50;7314952;19;130366;-36
2023/04/17 00:45:48;;;;;;;9.70;1.20;;;;;;;22.74;57.48;99831.13;7315016;19;130039;-38
2023/04/17 00:48:15;;;;;;;54.03;3.33;;;;;;;22.71;57.37;99826.16;7313064;19;131292;-39
2023/04/17 00:50:41;;;;;;;;;;;;;;;22.83;57.40;99830.25;7315552;19;129739;-39
2023/04/17 00:53:06;;;;;;;35.92;2.63;;;;;;;22.71;56.87;99826.16;7314083;19;129209;-38
2023/04/17 00:55:34;;;;;;;32.53;2.25;;;;;;;22.73;57.55;99830.28;7314623;19;129120;-39
2023/04/17 00:57:59;;;;;;;70.57;4.47;;;;;;;22.73;57.16;99825.03;7312802;19;131041;-39
2023/04/17 01:00:25;;;;;;;37.90;2.65;;;;;;;22.74;57.42;99825.88;7315015;19;129332;-38
2023/04/17 01:02:50;;;;;;;44.03;3.07;;;;;;;22.63;57.15;99812.91;7313329;19;129164;-39
2023/04/17 01:05:16;;;;;;;72.88;4.68;;;;;;;22.74;57.33;99831.13;7311812;19;132260;-39
2023/04/17 01:07:42;;;;;;;61.20;3.83;;;;;;;22.63;57.24;99808.50;7313305;19;130410;-38
2023/04/17 01:10:08;;;;;;;29.70;2.35;;;;;;;22.71;57.23;99831.41;7314918;19;129282;-39
2023/04/17 01:12:33;;;;;;;27.60;2.10;;;;;;;22.68;57.20;99829.88;7315449;19;130901;-39
2023/04/17 01:14:59;;;;;;;36.03;2.45;;;;;;;22.59;56.99;99812.38;7312542;19;129744;-38
2023/04/17 01:17:25;;;;;;;52.40;3.30;;;;;;;22.65;57.38;99831.94;7313352;19;131519;-36
2023/04/17 01:19:51;;;;;;;36.20;2.47;;;;;;;22.61;57.35;99820.91;7313768;19;129979;-38
2023/04/17 01:22:18;;;;;;;31.67;2.20;;;;;;;22.61;57.61;99820.13;7313591;19;129244;-38
2023/04/17 01:24:44;;;;;;;44.83;2.83;;;;;;;22.59;57.51;99824.66;7313769;19;130230;-39
2023/04/17 01:27:12;;;;;;;60.53;4.03;;;;;;;22.57;56.97;99823.97;7312671;19;130359;-37
2023/04/17 01:29:38;;;;;;;41.63;2.90;;;;;;;22.48;57.31;99815.13;7314955;19;130711;-38
2023/04/17 01:32:04;;;;;;;36.65;2.60;;;;;;;22.56;57.53;99830.19;7313763;19;129233;-38
2023/04/17 01:34:29;;;;;;;47.80;2.88;;;;;;;22.55;57.25;99825.91;7314401;19;130120;-38
2023/04/17 01:36:55;;;;;;;56.57;3.27;;;;;;;22.54;57.26;99821.63;7309146;19;130216;-37
2023/04/17 01:39:20;;;;;;;30.83;1.98;;;;;;;22.55;57.38;99831.13;7311852;19;129340;-39
2023/04/17 01:41:45;;;;;;;29.17;2.20;;;;;;;22.57;57.10;99831.81;7313387;19;129015;-38
2023/04/17 01:44:11;;;;;;;55.47;3.15;;;;;;;22.53;57.31;99827.81;7313224;19;129622;-36
2023/04/17 01:46:36;;;;;;;41.88;2.88;;;;;;;22.53;57.19;99831.28;7312743;19;130271;-38
2023/04/17 01:49:01;;;;;;;32.97;2.13;;;;;;;22.53;56.90;99833.06;7312674;19;129639;-39
2023/04/17 01:51:27;;;;;;;43.27;2.87;;;;;;;22.46;57.76;99826.72;7311609;19;128956;-39
2023/04/17 01:53:53;;;;;;;55.03;3.27;;;;;;;22.48;57.52;99832.63;7312075;19;130162;-38
2023/04/17 01:56:18;;;;;;;49.17;3.30;;;;;;;22.34;57.50;99820.78;7312687;19;129535;-40
2023/04/17 01:58:44;;;;;;;52.83;3.57;;;;;;;22.42;56.90;99831.41;7308931;19;129139;-38
2023/04/17 02:01:09;;;;;;;27.37;2.00;;;;;;;22.42;56.61;99830.56;7313631;19;129598;-38
2023/04/17 02:03:35;;;;;;;65.03;3.83;;;;;;;22.42;58.02;99830.56;7312806;19;129518;-37
2023/04/17 02:06:00;;;;;;;34.83;2.37;;;;;;;22.32;57.59;99819.25;7312638;19;129653;-38
2023/04/17 02:08:26;;;;;;;25.60;1.83;;;;;;;22.38;57.20;99835.25;7310605;19;128991;-38
2023/04/17 02:10:51;;;;;;;39.03;2.58;;;;;;;22.38;57.73;99837.06;7310537;19;130531;-38
2023/04/17 02:13:17;;;;;;;39.67;2.53;;;;;;;22.34;57.84;99835.69;7313773;19;129225;-39
2023/04/17 02:15:43;;;;;;;72.75;4.18;;;;;;;22.35;57.01;99834.69;7310949;19;130011;-40
2023/04/17 02:18:08;;;;;;;32.78;2.20;;;;;;;22.32;57.42;99832.38;7309869;19;128992;-38
2023/04/17 02:20:35;;;;;;;49.42;3.08;;;;;;;22.28;58.12;99839.66;7311895;19;130175;-38
2023/04/17 02:23:01;;;;;;;34.50;2.38;;;;;;;22.31;57.27;99841.19;7312095;19;130974;-38
2023/04/17 02:25:27;;;;;;;;;;;;;;;22.37;58.06;99838.84;7312984;19;131698;-39
2023/04/17 02:27:53;;;;;;;33.50;2.17;;;;;;;22.33;58.10;99839.28;7311613;19;130195;-38
2023/04/17 02:30:19;;;;;;;48.85;2.90;;;;;;;22.32;57.95;99843.69;7309557;19;129248;-37
2023/04/17 02:32:44;;;;;;;40.88;2.78;;;;;;;22.31;57.31;99838.56;7312001;19;129292;-38
2023/04/17 02:35:10;;;;;;;66.32;4.32;;;;;;;22.30;57.25;99840.38;7311768;19;130548;-39
2023/04/17 02:37:36;;;;;;;30.75;2.10;;;;;;;22.27;57.94;99834.56;7311208;19;129258;-39
2023/04/17 02:40:01;;;;;;;84.32;4.88;;;;;;;22.26;58.07;99836.38;7310000;19;129806;-38
2023/04/17 02:42:27;;;;;;;39.20;2.42;;;;;;;22.26;57.83;99838.16;7313070;19;130129;-36
2023/04/17 02:44:52;;;;;;;21.97;1.73;;;;;;;22.25;58.21;99839.13;7310666;19;130346;-37
2023/04/17 02:47:18;;;;;;;52.35;3.35;;;;;;;22.15;57.33;99823.41;7312086;19;129338;-39
2023/04/17 02:49:43;;;;;;;58.60;3.58;;;;;;;22.26;58.05;99835.53;7309907;19;129344;-38
2023/04/17 02:52:09;;;;;;;41.63;2.53;;;;;;;22.26;57.31;99840.78;7309251;19;129684;-39
2023/04/17 02:54:34;;;;;;;35.75;2.28;;;;;;;22.23;58.03;99839.25;7311591;19;129766;-37
2023/04/17 02:57:00;;;;;;;20.17;1.70;;;;;;;22.15;57.66;99817.38;7310074;19;129503;-39
2023/04/17 02:59:26;;;;;;;58.13;3.50;;;;;;;22.27;57.30;99837.19;7309323;19;128811;-38
2023/04/17 03:01:51;;;;;;;28.17;1.88;;;;;;;22.30;57.52;99835.13;7311222;19;130774;-36
2023/04/17 03:04:16;;;;;;;53.03;3.25;;;;;;;22.31;58.25;99834.19;7311786;19;129938;-40
2023/04/17 03:06:42;;;;;;;28.42;1.92;;;;;;;22.30;57.47;99836.91;7310921;19;129212;-38
2023/04/17 03:09:07;;;;;;;40.30;2.60;;;;;;;22.29;58.20;99836.09;7309751;19;130542;-38
2023/04/17 03:11:33;;;;;;;27.77;1.87;;;;;;;22.30;57.44;99831.66;7309702;19;129716;-36
2023/04/17 03:13:58;;;;;;;50.20;3.15;;;;;;;22.31;57.42;99825.47;7309059;19;130356;-38
2023/04/17 03:16:24;;;;;;;62.63;3.70;;;;;;;22.29;56.92;99832.66;7309288;19;129048;-38
2023/04/17 03:18:49;;;;;;;48.55;3.20;;;;;;;22.32;57.47;99829.75;7308228;19;129260;-39
2023/04/17 03:21:14;;;;;;;27.60;1.83;;;;;;;22.31;57.59;99830.72;7310797;19;130469;-36
2023/04/17 03:23:40;;;;;;;31.67;2.25;;;;;;;22.33;57.49;99834.03;7310863;19;129377;-38
2023/04/17 03:26:06;;;;;;;39.63;2.57;;;;;;;22.36;58.19;99836.38;7308559;19;129158;-38
2023/04/17 03:28:31;;;;;;;60.08;3.63;;;;;;;22.38;57.11;99835.25;7307484;19;128952;-38
2023/04/17 03:30:58;;;;;;;36.25;2.33;;;;;;;22.36;57.12;99831.13;7309734;19;129375;-39
2023/04/17 03:33:23;;;;;;;;;;;;;;;22.40;57.83;99835.13;7310522;19;131201;-36
2023/04/17 03:35:49;;;;;;;52.22;3.03;;;;;;;22.36;57.35;99836.38;7309554;19;129566;-39
2023/04/17 03:38:14;;;;;;;24.05;1.73;;;;;;;22.16;56.66;99839.94;7308946;19;129025;-40
2023/04/17 03:40:39;;;;;;;45.95;2.97;;;;;;;21.84;56.64;99835.78;7309276;19;129493;-38
2023/04/17 03:43:05;;;;;;;35.37;2.27;;;;;;;21.70;57.21;99843.97;7309869;19;130300;-38
2023/04/17 03:45:30;;;;;;;49.83;2.87;;;;;;;21.71;57.68;99850.88;7309919;19;129129;-39
2023/04/17 03:47:56;;;;;;;35.30;2.17;;;;;;;21.78;57.11;99846.78;7309944;19;128961;-38
2023/04/17 03:50:21;;;;;;;41.22;2.47;;;;;;;21.88;57.25;99858.09;7308741;19;129345;-38
2023/04/17 03:52:46;;;;;;;53.80;3.40;;;;;;;21.98;57.05;99845.84;7309338;19;130085;-38
2023/04/17 03:55:12;;;;;;;78.75;4.80;;;;;;;22.01;56.73;99838.69;7308681;19;129017;-38
2023/04/17 03:57:37;;;;;;;34.08;2.20;;;;;;;22.20;56.43;99857.88;7307427;19;129239;-38
2023/04/17 04:00:06;;;;;;;30.40;1.88;;;;;;;22.33;56.43;99847.13;7309205;19;129694;-39
2023/04/17 04:02:31;;;;;;;44.17;2.88;;;;;;;22.39;55.52;99847.41;7316006;19;131081;-39
2023/04/17 04:04:56;;;;;;;55.40;3.30;;;;;;;22.45;55.48;99854.69;7317502;19;128918;-38
2023/04/17 04:07:22;;;;;;;29.75;1.77;;;;;;;22.48;55.28;99848.34;7315755;19;129483;-38
2023/04/17 04:09:47;;;;;;;30.90;2.07;;;;;;;22.44;55.99;99852.22;7311761;19;131374;-38
2023/04/17 04:12:12;;;;;;;104.77;6.20;;;;;;;22.41;56.06;99850.69;7308703;19;129296;-38
2023/04/17 04:14:38;;;;;;;39.40;2.33;;;;;;;22.36;56.20;99857.34;7314689;19;131232;-38
2023/04/17 04:17:03;;;;;;;43.00;2.50;;;;;;;22.46;55.74;99864.19;7315810;19;128880;-39
2023/04/17 04:19:28;;;;;;;58.72;3.78;;;;;;;22.49;55.60;99848.22;7314449;19;129701;-39
2023/04/17 04:21:54;;;;;;;41.70;2.63;;;;;;;22.53;55.98;99860.09;7312363;19;130250;-40
2023/04/17 04:24:19;;;;;;;58.42;3.63;;;;;;;22.60;55.36;99866.44;7316093;19;129391;-36
2023/04/17 04:26:48;;;;;;;42.07;2.60;;;;;;;22.71;54.81;99862.84;7315145;19;129338;-39
2023/04/17 04:29:14;;;;;;;51.28;2.95;;;;;;;22.82;55.00;99867.94;7313305;19;129596;-37
2023/04/17 04:31:40;;;;;;;46.50;2.65;;;;;;;22.88;54.67;99859.50;7312277;19;130447;-39
2023/04/17 04:34:06;;;;;;;57.58;3.55;;;;;;;22.93;54.14;99862.53;7314631;19;129467;-38
2023/04/17 04:36:34;;;;;;;51.20;2.77;;;;;;;22.92;54.16;99866.94;7313497;19;129602;-38
2023/04/17 04:39:00;;;;;;;51.13;3.33;;;;;;;22.86;54.15;99862.25;7310744;19;129751;-39
2023/04/17 04:41:26;;;;;;;52.20;2.90;;;;;;;22.83;54.80;99872.19;7312814;19;131018;-38
2023/04/17 04:43:53;;;;;;;42.00;2.40;;;;;;;22.71;55.30;99870.72;7312082;19;130356;-37
2023/04/17 04:46:18;;;;;;;;;;;;;;;22.63;54.90;99870.56;7312837;19;129176;-37
2023/04/17 04:48:43;;;;;;;30.60;2.08;;;;;;;22.46;55.55;99863.41;7312158;19;130111;-38
2023/04/17 04:51:09;;;;;;;74.87;4.53;;;;;;;22.44;55.68;99875.81;7310867;19;129522;-38
2023/04/17 04:53:34;;;;;;;28.60;1.83;;;;;;;22.35;56.23;99876.63;7315567;19;129384;-38
2023/04/17 04:56:00;;;;;;;46.40;2.97;;;;;;;22.25;56.08;99875.78;7310420;19;129116;-39
2023/04/17 04:58:28;;;;;;;25.70;1.75;;;;;;;22.18;56.78;99882.56;7310839;19;129530;-38
2023/04/17 05:00:54;;;;;;;57.80;3.20;;;;;;;22.08;57.18;99889.56;7307870;19;131366;-38
2023/04/17 05:03:21;;;;;;;29.47;1.90;;;;;;;22.02;56.99;99885.69;7313383;19;129184;-38
2023/04/17 05:05:46;;;;;;;;;;;;;;;21.84;56.77;99863.75;7309546;19;129118;-38
2023/04/17 05:08:11;;;;;;;41.93;2.47;;;;;;;21.91;56.92;99885.81;7311205;19;130913;-37
2023/04/17 05:10:37;;;;;;;44.60;2.50;;;;;;;21.88;57.09;99892.13;7314827;19;129080;-39
2023/04/17 05:13:02;;;;;;;47.20;2.65;;;;;;;21.83;57.47;99890.91;7312084;19;129553;-38
2023/04/17 05:15:27;;;;;;;41.88;2.65;;;;;;;21.75;57.38;99888.91;7313211;19;129477;-38
2023/04/17 05:17:53;;;;;;;41.63;2.38;;;;;;;21.79;57.46;99898.19;7314235;19;129346;-38
2023/04/17 05:20:18;;;;;;;70.90;4.10;;;;;;;21.73;58.38;99885.56;7311524;19;130215;-38
2023/04/17 05:22:44;;;;;;;67.78;3.95;;;;;;;21.85;57.64;99905.50;7313853;19;129151;-38
2023/04/17 05:25:10;;;;;;;84.53;5.25;;;;;;;21.83;57.28;99896.94;7311588;19;129463;-38
2023/04/17 05:27:35;;;;;;;44.60;2.50;;;;;;;22.06;57.26;99897.56;7311059;19;130035;-38
2023/04/17 05:30:00;;;;;;;33.45;2.33;;;;;;;22.09;56.82;99893.81;7314279;19;130315;-38
2023/04/17 05:32:26;;;;;;;37.85;2.50;;;;;;;22.25;56.90;99892.31;7309955;19;129045;-36
2023/04/17 05:34:51;;;;;;;29.27;1.75;;;;;;;22.36;56.38;99904.47;7312615;19;130428;-38
2023/04/17 05:37:16;;;;;;;87.50;5.20;;;;;;;22.37;56.15;99906.13;7311121;19;129222;-38
2023/04/17 05:39:42;;;;;;;22.23;1.40;;;;;;;22.38;56.23;99913.03;7311323;19;129502;-38
2023/04/17 05:42:07;;;;;;;29.43;1.87;;;;;;;22.30;56.27;99912.88;7312609;19;129503;-38
2023/04/17 05:44:32;;;;;;;36.25;2.03;;;;;;;22.28;56.58;99912.19;7313801;19;129052;-38
2023/04/17 05:47:00;;;;;;;55.03;3.27;;;;;;;22.18;56.71;99911.34;7311890;19;129594;-38
2023/04/17 05:49:26;;;;;;;52.30;3.33;;;;;;;22.14;56.49;99920.44;7305807;19;130075;-37
2023/04/17 05:51:52;;;;;;;71.70;4.57;;;;;;;21.98;57.03;99909.66;7307816;19;130497;-38
2023/04/17 05:54:17;;;;;;;69.73;4.30;;;;;;;22.01;57.32;99925.09;7307242;19;129067;-38
2023/04/17 05:56:42;;;;;;;112.03;6.57;;;;;;;21.98;57.23;99921.78;7309934;19;130222;-38
2023/04/17 05:59:08;;;;;;;61.70;3.80;;;;;;;21.90;57.76;99919.00;7307194;19;129354;-37
2023/04/17 06:01:34;;;;;;;46.10;2.67;;;;;;;21.86;57.62;99919.41;7309126;19;130169;-41
2023/04/17 06:04:00;;;;;;;68.00;4.18;;;;;;;21.86;57.50;99933.34;7309731;19;131050;-42
2023/04/17 06:06:26;;;;;;;73.87;4.37;;;;;;;21.82;58.11;99925.84;7305614;19;129430;-39
2023/04/17 06:08:53;;;;;;;34.00;1.98;;;;;;;21.84;58.05;99929.19;7308113;19;131121;-40
2023/04/17 06:11:18;;;;;;;;;;;;;;;21.82;58.11;99926.69;7309717;19;130820;-39
2023/04/17 06:13:43;;;;;;;68.30;3.77;;;;;;;21.94;57.57;99930.88;7312444;19;130353;-40
2023/04/17 06:16:09;;;;;;;79.10;4.60;;;;;;;22.06;57.62;99933.38;7305012;19;131415;-38
2023/04/17 06:18:34;;;;;;;48.35;2.80;;;;;;;22.14;57.62;99938.75;7309819;19;130342;-42
2023/04/17 06:21:00;;;;;;;39.53;2.20;;;;;;;22.26;56.37;99929.84;7309198;19;129887;-40
2023/04/17 06:23:25;;;;;;;60.23;3.33;;;;;;;22.33;56.88;99937.00;7307080;19;129979;-42
2023/04/17 06:25:51;;;;;;;39.00;2.38;;;;;;;22.41;56.41;99942.38;7312248;19;129477;-40
2023/04/17 06:28:16;;;;;;;15.47;1.03;;;;;;;22.38;56.68;99937.41;7309428;19;131228;-41
2023/04/17 06:30:42;;;;;;;56.80;3.27;;;;;;;22.36;56.41;99943.78;7311759;19;130369;-41
2023/04/17 06:33:07;;;;;;;40.75;2.38;;;;;;;22.30;56.33;99946.91;7312654;19;129050;-41
2023/04/17 06:35:33;;;;;;;40.30;2.60;;;;;;;22.27;56.41;99948.03;7312800;19;130352;-40
2023/04/17 06:37:59;;;;;;;29.73;2.10;;;;;;;22.18;57.26;99954.06;7309717;19;130333;-42
2023/04/17 06:40:24;;;;;;;24.63;1.63;;;;;;;22.15;56.62;99953.53;7312194;19;129377;-40
2023/04/17 06:42:50;;;;;;;49.50;2.90;;;;;;;22.09;57.03;99954.03;7312263;19;128975;-40
2023/04/17 06:45:15;;;;;;;56.95;3.45;;;;;;;22.04;57.56;99951.00;7312859;19;129212;-41
2023/04/17 06:47:41;;;;;;;24.63;1.80;;;;;;;22.00;56.95;99955.66;7309891;19;130320;-39
2023/04/17 06:50:07;;;;;;;34.78;2.05;;;;;;;21.94;57.94;99966.69;7311130;19;128935;-40
2023/04/17 06:52:33;;;;;;;56.38;3.20;;;;;;;21.89;58.12;99967.09;7308754;19;128866;-38
2023/04/17 06:54:58;;;;;;;40.40;2.63;;;;;;;21.86;57.51;99974.38;7311886;19;129105;-41
2023/04/17 06:57:24;;;;;;;29.23;1.67;;;;;;;21.83;58.25;99974.66;7310205;19;130694;-42
2023/04/17 06:59:49;;;;;;;34.20;2.30;;;;;;;21.84;58.44;99973.69;7309526;19;129192;-41
2023/04/17 07:02:15;;;;;;;41.30;2.25;;;;;;;21.85;58.39;99976.16;7310370;19;130761;-40
2023/04/17 07:04:40;;;;;;;32.17;1.92;;;;;;;21.90;57.78;99981.00;7312144;19;130777;-40
2023/04/17 07:07:06;;;;;;;36.10;2.30;;;;;;;22.03;57.82;99981.63;7311018;19;129202;-41
2023/04/17 07:09:31;;;;;;;94.47;5.50;;;;;;;22.16;57.49;99986.59;7309697;19;130428;-40
2023/04/17 07:11:57;;;;;;;27.70;1.73;;;;;;;22.28;57.04;99982.91;7309726;19;128999;-39
2023/04/17 07:14:22;;;;;;;44.97;2.72;;;;;;;22.35;56.57;99986.63;7312112;19;131583;-42
2023/04/17 07:16:48;;;;;;;31.13;1.83;;;;;;;22.39;56.73;99994.09;7310374;19;129074;-38
2023/04/17 07:19:13;;;;;;;38.17;2.27;;;;;;;22.41;56.65;100000.03;7307314;19;129243;-41
2023/04/17 07:21:38;;;;;;;43.53;2.60;;;;;;;22.39;56.71;99990.66;7311615;19;129317;-40
2023/04/17 07:24:04;;;;;;;27.42;1.65;;;;;;;22.36;56.76;100004.03;7311036;19;130190;-37
2023/04/17 07:26:30;;;;;;;26.15;1.63;;;;;;;22.30;56.95;100004.53;7309369;19;131197;-41
2023/04/17 07:28:56;;;;;;;58.30;3.40;;;;;;;22.21;56.98;100007.97;7305806;19;131312;-40
2023/04/17 07:31:21;;;;;;;33.27;2.17;;;;;;;22.12;55.98;100011.38;7310060;19;130854;-41
2023/04/17 07:33:46;;;;;;;41.58;2.97;;;;;;;22.10;56.03;100013.34;7310171;19;130848;-41
2023/04/17 07:36:12;;;;;;;118.47;6.77;;;;;;;22.14;55.49;100019.94;7314341;19;129616;-41
2023/04/17 07:38:37;;;;;;;65.10;3.83;;;;;;;22.15;55.45;100021.63;7314299;19;130382;-45
2023/04/17 07:41:03;;;;;;;21.73;1.43;;;;;;;22.14;55.28;100027.81;7317687;19;128993;-41
2023/04/17 07:43:28;;;;;;;48.10;3.08;;;;;;;22.19;56.56;100029.06;7315305;19;129642;-42
2023/04/17 07:45:55;;;;;;;54.95;3.60;;;;;;;22.12;55.85;100029.72;7314905;19;130534;-40
2023/04/17 07:48:21;;;;;;;50.15;3.22;;;;;;;22.06;55.52;100036.34;7314016;19;128942;-41
2023/04/17 07:50:47;;;;;;;;;;;;;;;22.00;56.08;100036.84;7316140;19;129087;-39
2023/04/17 07:53:12;;;;;;;40.40;2.35;;;;;;;21.98;55.53;100036.16;7317219;19;129485;-43
2023/04/17 07:55:38;;;;;;;182.88;11.10;;;;;;;22.02;56.03;100041.94;7308060;19;130281;-36
2023/04/17 07:58:05;;;;;;;198.25;12.18;;;;;;;22.07;55.92;100034.53;7276024;19;130856;-37
2023/04/17 08:00:31;;;;;;;170.70;9.90;;;;;;;22.14;55.66;100048.75;7278339;19;129845;-38
2023/04/17 08:02:57;;;;;;;243.30;14.53;;;;;;;22.14;55.85;100030.41;7278663;19;130962;-39
2023/04/17 08:05:22;;;;;;;251.30;15.47;;;;;;;22.26;55.64;100043.28;7279725;19;130899;-41
2023/04/17 08:07:48;;;;;;;188.30;11.33;;;;;;;22.32;55.11;100049.78;7279282;19;131485;-38
2023/04/17 08:10:14;;;;;;;190.50;11.30;;;;;;;22.27;55.62;100046.72;7277961;19;130526;-37
2023/04/17 08:12:40;;;;;;;203.30;12.00;;;;;;;22.33;55.64;100048.84;7277047;19;130483;-36
2023/04/17 08:15:06;;;;;;;260.00;15.63;;;;;;;22.32;54.64;100055.00;7275057;19;129895;-39
2023/04/17 08:17:32;;;;;;;205.43;12.23;;;;;;;22.25;54.81;100057.34;7277223;19;130273;-36
2023/04/17 08:19:57;;;;;;;210.93;13.05;;;;;;;22.20;53.88;100053.44;7277978;19;131487;-38
2023/04/17 08:22:24;;;;;;;220.73;13.43;;;;;;;22.12;55.03;100037.56;7276225;19;130621;-37
2023/04/17 08:24:56;;;;;;;197.75;11.80;;;;;;;22.14;56.05;100043.50;7277846;19;131425;-38
2023/04/17 08:27:21;;;;;;;244.27;14.68;;;;;;;22.17;55.34;100057.19;7275050;19;130871;-35
2023/04/17 08:29:46;;;;;;;208.23;12.83;;;;;;;22.15;55.59;100068.75;7277027;19;130619;-40
2023/04/17 08:32:12;;;;;;;183.67;11.07;;;;;;;22.13;55.45;100068.06;7275627;19;131295;-38
2023/04/17 08:34:37;;;;;;;211.68;12.32;;;;;;;22.00;56.17;100043.88;7278104;19;129747;-38
2023/04/17 08:37:03;;;;;;;227.90;13.65;;;;;;;22.10;55.66;100065.69;7276003;19;130634;-34
2023/04/17 08:39:29;;;;;;;189.00;11.45;;;;;;;22.08;56.91;100072.84;7273983;19;130960;-36
2023/04/17 08:42:02;;;;;;;192.38;11.60;;;;;;;22.06;57.26;100075.59;7276037;19;131060;-39
2023/04/17 08:44:28;;;;;;;201.18;11.80;;;;;;;22.03;56.80;100077.66;7278380;19;131803;-38
2023/04/17 08:46:57;;;;;;;204.45;12.27;;;;;;;22.01;56.49;100076.94;7275732;19;130243;-38
2023/04/17 08:49:26;;;;;;;186.85;10.98;;;;;;;22.00;56.64;100083.97;7277015;19;130342;-39
2023/04/17 08:51:52;;;;;;;195.32;11.70;;;;;;;22.07;56.03;100084.25;7275589;19;131904;-37
2023/04/17 08:54:20;;;;;;;205.68;12.13;;;;;;;22.08;56.74;100089.38;7274627;19;129859;-38
2023/04/17 08:56:48;;;;;;;223.13;13.23;;;;;;;22.15;55.47;100084.47;7276638;19;129847;-37
2023/04/17 08:59:15;;;;;;;202.80;12.23;;;;;;;22.20;55.73;100077.03;7274795;19;131168;-39
2023/04/17 09:02:00;;;;;;;179.73;10.88;;;;;;;22.26;55.93;100079.97;7276290;19;131347;-38
2023/04/17 09:04:46;;;;;;;33.22;2.13;;;;;;;22.28;55.96;100079.84;7308464;19;131320;-38
2023/04/17 09:07:12;;;;;;;35.90;2.47;;;;;;;22.28;55.37;100087.69;7310632;19;129968;-38
2023/04/17 09:09:54;;;;;;;42.88;2.78;;;;;;;22.26;55.72;100079.97;7312468;19;130163;-37
2023/04/17 09:12:24;;;;;;;68.13;4.22;;;;;;;22.22;55.99;100090.81;7310117;19;129366;-38
2023/04/17 09:14:49;;;;;;;36.95;2.40;;;;;;;22.23;56.11;100087.25;7314671;19;129521;-38
2023/04/17 09:17:16;;;;;;;71.18;4.25;;;;;;;22.22;55.66;100096.06;7313902;19;129830;-39
2023/04/17 09:20:03;;;;;;;;;;;;;;;22.11;55.84;100078.66;7315662;19;129266;-39
2023/04/17 09:22:28;;;;;;;30.90;2.08;;;;;;;22.14;56.36;100095.88;7313961;19;130176;-41
2023/04/17 09:24:54;;;;;;;41.53;2.38;;;;;;;22.12;56.27;100101.25;7315124;19;130796;-38
2023/04/17 09:27:23;;;;;;;63.55;3.55;;;;;;;22.06;56.83;100095.72;7315401;19;129634;-40
2023/04/17 09:29:59;;;;;;;28.67;2.17;;;;;;;21.96;56.75;100091.25;7315485;19;129816;-38
2023/04/17 09:32:25;;;;;;;31.83;2.23;;;;;;;21.95;57.03;100089.59;7312216;19;131037;-38
2023/04/17 09:34:52;;;;;;;44.37;2.97;;;;;;;22.06;56.86;100100.94;7313783;19;130349;-38
2023/04/17 09:37:21;;;;;;;56.30;3.45;;;;;;;21.94;57.01;100087.13;7314358;19;129352;-38
2023/04/17 09:40:00;;;;;;;36.92;2.38;;;;;;;22.04;58.15;100114.19;7314835;19;129087;-38
2023/04/17 09:42:27;;;;;;;42.60;2.67;;;;;;;21.96;56.77;100109.56;7313654;19;130232;-38
2023/04/17 09:44:54;;;;;;;39.30;2.58;;;;;;;21.96;57.19;100104.34;7313075;19;129126;-38
2023/04/17 09:47:23;;;;;;;52.33;3.10;;;;;;;21.92;56.88;100091.63;7311672;19;131296;-38
2023/04/17 09:49:52;;;;;;;53.70;3.38;;;;;;;22.11;56.45;100109.25;7314567;19;129348;-38
2023/04/17 09:52:22;;;;;;;30.92;1.92;;;;;;;22.20;56.11;100109.28;7313593;19;130606;-38
2023/04/17 09:54:52;;;;;;;46.80;2.95;;;;;;;22.26;56.14;100102.69;7312962;19;130440;-38
2023/04/17 09:57:18;;;;;;;35.20;2.28;;;;;;;22.27;56.03;100110.44;7310973;19;129441;-40
2023/04/17 09:59:47;;;;;;;50.10;2.93;;;;;;;22.27;56.48;100106.97;7311718;19;129376;-38
2023/04/17 10:02:15;;;;;;;47.50;2.90;;;;;;;22.28;56.61;100116.50;7313491;19;130168;-38
2023/04/17 10:04:41;;;;;;;32.97;2.22;;;;;;;22.28;56.56;100111.25;7312742;19;130196;-39
2023/04/17 10:07:06;;;;;;;41.88;2.65;;;;;;;22.33;56.48;100114.31;7311504;19;130938;-38
2023/04/17 10:09:32;;;;;;;63.37;3.77;;;;;;;22.27;55.77;100105.19;7312957;19;128899;-38
2023/04/17 10:12:00;;;;;;;31.30;2.17;;;;;;;22.23;56.08;100118.69;7313052;19;129185;-38
2023/04/17 10:14:31;;;;;;;32.92;2.28;;;;;;;22.20;56.70;100108.44;7313979;19;130913;-38
2023/04/17 10:16:57;;;;;;;51.83;3.15;;;;;;;22.19;57.04;100117.28;7312754;19;129480;-38
2023/04/17 10:19:32;;;;;;;52.13;3.13;;;;;;;22.15;56.95;100115.91;7310177;19;129314;-38
2023/04/17 10:22:19;;;;;;;53.25;3.35;;;;;;;22.09;56.85;100106.75;7312953;19;131081;-38
2023/04/17 10:24:48;;;;;;;55.90;3.33;;;;;;;22.12;57.39;100121.38;7312798;19;129172;-38
2023/04/17 10:27:29;;;;;;;47.53;2.85;;;;;;;22.10;57.40;100112.84;7312384;19;128715;-38
2023/04/17 10:30:08;;;;;;;27.33;1.90;;;;;;;22.07;58.31;100113.06;7313111;19;129998;-38
2023/04/17 10:32:34;;;;;;;24.88;1.65;;;;;;;22.03;57.27;100116.94;7309560;19;130283;-43
2023/04/17 10:35:01;;;;;;;34.10;2.13;;;;;;;22.01;57.06;100113.59;7311801;19;132869;-39
2023/04/17 10:37:51;;;;;;;45.85;2.70;;;;;;;21.94;57.07;100119.38;7310687;19;130294;-38
2023/04/17 10:40:20;;;;;;;48.35;2.80;;;;;;;21.98;57.00;100119.09;7312259;19;130362;-39
2023/04/17 10:43:00;;;;;;;54.55;3.50;;;;;;;22.02;56.95;100115.25;7312473;19;130077;-39
2023/04/17 10:46:04;;;;;;;56.05;3.65;;;;;;;22.14;56.86;100124.69;7311831;19;129710;-39
2023/04/17 10:48:32;;;;;;;62.55;3.75;;;;;;;22.21;56.76;100116.19;7309931;19;128927;-38
2023/04/17 10:50:58;;;;;;;45.30;3.00;;;;;;;22.25;56.73;100121.97;7311336;19;130538;-38
2023/04/17 10:53:41;;;;;;;30.10;1.85;;;;;;;22.27;56.25;100114.81;7309785;19;130407;-38
2023/04/17 10:56:10;;;;;;;40.58;2.67;;;;;;;22.28;56.81;100121.75;7310783;19;131518;-37
2023/04/17 10:58:58;;;;;;;29.42;2.08;;;;;;;22.26;56.39;100119.25;7310396;19;129195;-38
2023/04/17 11:01:25;;;;;;;;;;;;;;;22.26;56.23;100118.41;7312777;19;130962;-39
2023/04/17 11:03:51;;;;;;;50.60;3.03;;;;;;;22.22;56.47;100119.63;7311229;19;130212;-39
2023/04/17 11:06:17;;;;;;;18.80;1.57;;;;;;;22.24;56.27;100129.03;7311588;19;129566;-37
2023/04/17 11:08:42;;;;;;;26.70;1.67;;;;;;;22.23;56.43;100121.31;7309786;19;130811;-39
2023/04/17 11:11:10;;;;;;;36.70;2.40;;;;;;;22.14;56.95;100108.97;7310733;19;129495;-39
2023/04/17 11:13:36;;;;;;;41.13;2.33;;;;;;;22.17;57.02;100124.44;7311012;19;130811;-38